Terminal Aerodrome Forecast
Issued by NWS St Louis, MO

Home | Current Version | Previous Version | Text Only | Print | Product List | Glossary On
Versions: 1 2 3 4 5 6 7 8 9 10 11 12 13 14 15 16 17 18
000
FTUS43 KLSX 301300 AAA
TAFCOU
TAF AMD
KCOU 301330Z 3014/3112 17009KT P6SM VCSH SCT050 OVC090
      TEMPO 3014/3018 -SHRA
     FM301900 26010KT P6SM BKN060
     FM310000 34008KT P6SM BKN050
     FM311000 34017G26KT P6SM BKN030=

USA.gov is the U.S. government's official web portal to all federal, state and local government web resources and services.